createdAt,value
2019-03-22T00:00:04.736Z,99.99
2019-03-22T00:01:04.709Z,99.99
2019-03-22T00:02:04.710Z,99.99
2019-03-22T00:03:04.691Z,99.99
2019-03-22T00:04:04.689Z,99.99
2019-03-22T00:05:04.667Z,99.99
2019-03-22T00:06:04.659Z,99.99
2019-03-22T00:07:04.632Z,99.99
2019-03-22T00:08:04.630Z,99.99
2019-03-22T00:09:04.612Z,99.99
2019-03-22T00:10:04.586Z,99.99
2019-03-22T00:11:04.601Z,99.99
2019-03-22T00:12:06.746Z,99.99
2019-03-22T00:13:04.548Z,99.99
2019-03-22T00:14:04.300Z,99.99
2019-03-22T00:15:04.533Z,99.99
2019-03-22T00:16:04.531Z,99.99
2019-03-22T00:17:04.490Z,99.99
2019-03-22T00:18:04.497Z,99.99
2019-03-22T00:19:04.463Z,99.99
2019-03-22T00:20:04.468Z,99.99
2019-03-22T00:21:04.454Z,99.99
2019-03-22T00:22:04.468Z,99.99
2019-03-22T00:23:04.412Z,99.99
2019-03-22T00:24:04.398Z,99.99
2019-03-22T00:25:04.400Z,99.99
2019-03-22T00:26:04.410Z,99.99
2019-03-22T00:27:15.561Z,99.99
2019-03-22T00:28:04.343Z,99.99
2019-03-22T00:29:04.346Z,99.99
2019-03-22T00:30:04.314Z,99.99
2019-03-22T00:31:04.336Z,99.99
2019-03-22T00:32:04.291Z,99.99
2019-03-22T00:33:04.294Z,99.99
2019-03-22T00:34:04.281Z,99.99
2019-03-22T00:35:04.248Z,99.99
2019-03-22T00:36:04.253Z,99.99
2019-03-22T00:37:04.246Z,99.99
2019-03-22T00:38:04.228Z,99.99
2019-03-22T00:39:04.194Z,99.99
2019-03-22T00:40:04.198Z,99.99
2019-03-22T00:41:04.183Z,99.99
2019-03-22T00:42:04.171Z,99.99
2019-03-22T00:43:04.158Z,99.99
2019-03-22T00:44:04.138Z,99.99
2019-03-22T00:45:04.133Z,99.99
2019-03-22T00:46:04.101Z,99.99
2019-03-22T00:47:04.106Z,99.99
2019-03-22T00:48:04.072Z,99.99
2019-03-22T00:49:04.080Z,99.99
2019-03-22T00:50:04.046Z,99.99
2019-03-22T00:51:04.051Z,99.99
2019-03-22T00:52:04.019Z,99.99
2019-03-22T00:53:04.008Z,99.99
2019-03-22T00:54:03.992Z,99.99
2019-03-22T00:55:04.012Z,99.99
2019-03-22T00:56:03.988Z,99.99
2019-03-22T00:57:03.957Z,99.99
2019-03-22T00:58:03.937Z,99.99
2019-03-22T00:59:03.941Z,99.99
2019-03-22T01:00:03.913Z,99.99
2019-03-22T01:01:03.928Z,99.99
2019-03-22T01:02:03.892Z,99.99
2019-03-22T01:03:03.888Z,99.99
2019-03-22T01:04:03.859Z,99.99
2019-03-22T01:05:03.867Z,99.99
2019-03-22T01:06:03.830Z,99.99
2019-03-22T01:07:03.835Z,99.99
2019-03-22T01:08:03.801Z,99.99
2019-03-22T01:09:03.796Z,99.99
2019-03-22T01:10:03.777Z,99.99
2019-03-22T01:11:03.781Z,99.99
2019-03-22T01:12:03.767Z,99.99
2019-03-22T01:13:03.739Z,99.99
2019-03-22T01:14:03.721Z,99.97
2019-03-22T01:15:03.707Z,99.97
2019-03-22T01:16:03.717Z,99.99
2019-03-22T01:17:03.687Z,99.68
2019-03-22T01:18:03.689Z,99.97
2019-03-22T01:19:03.658Z,99.97
2019-03-22T01:20:03.661Z,99.99
2019-03-22T01:21:03.638Z,99.92
2019-03-22T01:22:03.635Z,99.92
2019-03-22T01:23:03.606Z,99.99
2019-03-22T01:24:03.610Z,99.73
2019-03-22T01:25:03.586Z,99.83
2019-03-22T01:26:03.566Z,99.26
2019-03-22T01:27:03.572Z,99.44
2019-03-22T01:28:03.562Z,99.44
2019-03-22T01:29:03.533Z,99.44
2019-03-22T01:30:03.517Z,99.73
2019-03-22T01:31:03.502Z,99.83
2019-03-22T01:32:03.510Z,99.88
2019-03-22T01:33:03.481Z,99.83
2019-03-22T01:34:03.489Z,99.83
2019-03-22T01:35:03.462Z,99.64
2019-03-22T01:36:03.457Z,99.99
2019-03-22T01:37:03.444Z,99.97
2019-03-22T01:38:03.418Z,99.97
2019-03-22T01:39:03.174Z,99.5
2019-03-22T01:40:03.390Z,99.21
2019-03-22T01:41:03.382Z,99.21
2019-03-22T01:42:03.372Z,99.3
2019-03-22T01:43:03.373Z,99.59
2019-03-22T01:44:03.113Z,99.4
2019-03-22T01:45:03.334Z,99.4
2019-03-22T01:46:03.316Z,99.4
2019-03-22T01:47:03.380Z,99.5
2019-03-22T01:48:03.309Z,99.59
2019-03-22T01:49:03.301Z,99.21
2019-03-22T01:50:03.274Z,99.69
2019-03-22T01:51:03.275Z,99.59
2019-03-22T01:52:03.247Z,99.4
2019-03-22T01:53:03.250Z,99.21
2019-03-22T01:54:02.976Z,98.97
2019-03-22T01:55:03.225Z,99.64
2019-03-22T01:56:03.194Z,99.26
2019-03-22T01:57:03.186Z,99.07
2019-03-22T01:58:03.172Z,99.64
2019-03-22T01:59:02.927Z,99.55
2019-03-22T02:00:03.166Z,99.55
2019-03-22T02:01:03.139Z,99.45
2019-03-22T02:02:03.127Z,99.64
2019-03-22T02:03:03.113Z,99.64
2019-03-22T02:04:02.872Z,99.45
2019-03-22T02:05:03.092Z,99.07
2019-03-22T02:06:03.094Z,99.07
2019-03-22T02:07:03.065Z,99.55
2019-03-22T02:08:03.070Z,99.74
2019-03-22T02:09:03.045Z,98.97
2019-03-22T02:10:03.059Z,99.26
2019-03-22T02:11:03.016Z,99.16
2019-03-22T02:12:03.023Z,99.16
2019-03-22T02:13:03.014Z,99.16
2019-03-22T02:14:03.000Z,99.16
2019-03-22T02:15:02.970Z,99.16
2019-03-22T02:16:02.977Z,99.16
2019-03-22T02:17:02.951Z,99.26
2019-03-22T02:18:02.936Z,99.16
2019-03-22T02:19:02.925Z,99.16
2019-03-22T02:20:02.929Z,99.16
2019-03-22T02:21:02.904Z,99.07
2019-03-22T02:22:02.908Z,99.45
2019-03-22T02:23:02.878Z,98.79
2019-03-22T02:24:02.889Z,99.07
2019-03-22T02:25:02.852Z,98.88
2019-03-22T02:26:02.863Z,98.88
2019-03-22T02:27:02.831Z,99.07
2019-03-22T02:28:06.760Z,98.93
2019-03-22T02:29:02.828Z,99.41
2019-03-22T02:30:02.987Z,98.65
2019-03-22T02:31:02.784Z,98.83
2019-03-22T02:32:02.782Z,98.74
2019-03-22T02:33:02.795Z,98.74
2019-03-22T02:34:02.776Z,98.93
2019-03-22T02:35:02.813Z,99.12
2019-03-22T02:36:02.734Z,98.55
2019-03-22T02:37:02.737Z,98.55
2019-03-22T02:38:02.709Z,98.55
2019-03-22T02:39:02.710Z,98.55
2019-03-22T02:40:02.989Z,98.65
2019-03-22T02:41:02.689Z,98.74
2019-03-22T02:42:02.680Z,98.36
2019-03-22T02:43:02.653Z,98.74
2019-03-22T02:44:02.727Z,98.74
2019-03-22T02:45:02.995Z,98.36
2019-03-22T02:46:02.634Z,98.83
2019-03-22T02:47:02.617Z,98.83
2019-03-22T02:48:02.611Z,98.83
2019-03-22T02:49:02.599Z,98.83
2019-03-22T02:50:17.075Z,98.83
2019-03-22T02:51:02.582Z,98.74
2019-03-22T02:52:02.562Z,98.36
2019-03-22T02:53:02.569Z,98.27
2019-03-22T02:54:02.535Z,98.27
2019-03-22T02:55:02.983Z,98.46
2019-03-22T02:56:02.715Z,98.88
2019-03-22T02:57:02.513Z,97.88
2019-03-22T02:58:02.487Z,98.69
2019-03-22T02:59:02.496Z,98.36
2019-03-22T03:00:02.695Z,98.69
2019-03-22T03:01:02.450Z,97.93
2019-03-22T03:02:02.194Z,98.41
2019-03-22T03:03:02.447Z,98.41
2019-03-22T03:04:02.438Z,98.13
2019-03-22T03:05:02.412Z,98.22
2019-03-22T03:06:02.389Z,98.22
2019-03-22T03:07:02.400Z,98.22
2019-03-22T03:08:02.395Z,98.41
2019-03-22T03:09:02.372Z,98.6
2019-03-22T03:10:02.349Z,98.22
2019-03-22T03:11:02.353Z,97.93
2019-03-22T03:12:02.326Z,97.93
2019-03-22T03:13:02.340Z,98.22
2019-03-22T03:14:02.307Z,98.22
2019-03-22T03:15:02.324Z,98.32
2019-03-22T03:16:02.283Z,98.03
2019-03-22T03:17:02.278Z,97.93
2019-03-22T03:18:02.265Z,98.22
2019-03-22T03:19:02.268Z,97.55
2019-03-22T03:20:02.257Z,97.93
2019-03-22T03:21:02.253Z,97.55
2019-03-22T03:22:02.216Z,97.55
2019-03-22T03:23:02.225Z,97.74
2019-03-22T03:24:02.290Z,97.84
2019-03-22T03:25:02.185Z,97.74
2019-03-22T03:26:02.194Z,97.84
2019-03-22T03:27:02.159Z,97.93
2019-03-22T03:28:02.167Z,97.74
2019-03-22T03:29:02.140Z,97.65
2019-03-22T03:30:02.158Z,98.13
2019-03-22T03:31:02.127Z,98.03
2019-03-22T03:32:02.143Z,98.03
2019-03-22T03:33:02.214Z,98.03
2019-03-22T03:34:02.118Z,98.03
2019-03-22T03:35:02.138Z,97.93
2019-03-22T03:36:02.081Z,98.13
2019-03-22T03:37:02.062Z,97.84
2019-03-22T03:38:02.055Z,98.22
2019-03-22T03:39:02.029Z,97.65
2019-03-22T03:40:02.059Z,97.65
2019-03-22T03:41:02.011Z,97.55
2019-03-22T03:42:02.017Z,97.93
2019-03-22T03:43:01.988Z,97.55
2019-03-22T03:44:02.005Z,97.74
2019-03-22T03:45:01.968Z,97.74
2019-03-22T03:46:01.969Z,97.65
2019-03-22T03:47:01.941Z,97.7
2019-03-22T03:48:01.963Z,97.65
2019-03-22T03:49:01.938Z,97.93
2019-03-22T03:50:01.947Z,97.79
2019-03-22T03:51:01.982Z,97.79
2019-03-22T03:52:01.892Z,97.6
2019-03-22T03:53:01.905Z,97.84
2019-03-22T03:54:01.886Z,98.08
2019-03-22T03:55:01.883Z,97.89
2019-03-22T03:56:01.848Z,97.99
2019-03-22T03:57:01.850Z,97.36
2019-03-22T03:58:01.849Z,97.89
2019-03-22T03:59:01.829Z,97.41
2019-03-22T04:00:01.819Z,97.31
2019-03-22T04:01:01.795Z,97.51
2019-03-22T04:02:01.801Z,97.6
2019-03-22T04:03:01.775Z,97.41
2019-03-22T04:04:01.783Z,97.41
2019-03-22T04:05:01.772Z,97.31
2019-03-22T04:06:01.759Z,97.31
2019-03-22T04:07:01.742Z,97.31
2019-03-22T04:08:01.727Z,97.31
2019-03-22T04:09:01.724Z,97.51
2019-03-22T04:10:01.771Z,97.22
2019-03-22T04:11:01.706Z,97.31
2019-03-22T04:12:01.688Z,97.41
2019-03-22T04:13:01.692Z,97.51
2019-03-22T04:14:01.656Z,97.22
2019-03-22T04:15:01.661Z,97.31
2019-03-22T04:16:01.651Z,97.41
2019-03-22T04:17:01.646Z,97.6
2019-03-22T04:18:01.625Z,97.31
2019-03-22T04:19:01.631Z,97.41
2019-03-22T04:20:01.608Z,97.7
2019-03-22T04:21:01.588Z,97.41
2019-03-22T04:22:01.571Z,97.31
2019-03-22T04:23:01.589Z,97.51
2019-03-22T04:24:01.548Z,97.89
2019-03-22T04:25:01.563Z,97.99
2019-03-22T04:26:01.554Z,97.89
2019-03-22T04:27:01.538Z,97.89
2019-03-22T04:28:01.511Z,97.51
2019-03-22T04:29:10.105Z,97.22
2019-03-22T04:30:01.500Z,97.51
2019-03-22T04:31:01.496Z,97.6
2019-03-22T04:32:01.464Z,97.6
2019-03-22T04:33:01.474Z,97.51
2019-03-22T04:34:01.446Z,97.13
2019-03-22T04:35:01.450Z,97.6
2019-03-22T04:36:01.424Z,97.41
2019-03-22T04:37:01.421Z,97.31
2019-03-22T04:38:01.408Z,97.41
2019-03-22T04:39:01.412Z,97.89
2019-03-22T04:40:01.406Z,97.99
2019-03-22T04:41:01.377Z,97.99
2019-03-22T04:42:01.361Z,97.89
2019-03-22T04:43:01.354Z,98.46
2019-03-22T04:44:01.399Z,98.55
2019-03-22T04:45:01.331Z,98.36
2019-03-22T04:46:01.334Z,98.27
2019-03-22T04:47:01.306Z,98.36
2019-03-22T04:48:01.316Z,98.27
2019-03-22T04:49:01.292Z,97.99
2019-03-22T04:50:01.278Z,97.89
2019-03-22T04:51:01.287Z,97.89
2019-03-22T04:52:01.257Z,98.08
2019-03-22T04:53:01.578Z,97.79
2019-03-22T04:54:01.237Z,98.55
2019-03-22T04:55:01.245Z,98.46
2019-03-22T04:56:01.291Z,98.18
2019-03-22T04:57:01.206Z,97.89
2019-03-22T04:58:01.196Z,97.7
2019-03-22T04:59:01.180Z,98.18
2019-03-22T05:00:01.192Z,97.99
2019-03-22T05:01:01.168Z,97.7
2019-03-22T05:02:01.156Z,97.6
2019-03-22T05:03:01.165Z,97.7
2019-03-22T05:04:01.762Z,97.31
2019-03-22T05:05:00.898Z,97.41
2019-03-22T05:06:01.112Z,97.7
2019-03-22T05:07:01.114Z,97.31
2019-03-22T05:08:01.093Z,97.41
2019-03-22T05:09:01.097Z,97.41
2019-03-22T05:10:01.071Z,97.7
2019-03-22T05:11:01.076Z,97.75
2019-03-22T05:12:01.092Z,97.51
2019-03-22T05:13:01.045Z,97.46
2019-03-22T05:14:01.025Z,97.31
2019-03-22T05:15:00.797Z,97.51
2019-03-22T05:16:01.006Z,97.36
2019-03-22T05:17:01.008Z,97.56
2019-03-22T05:18:00.983Z,97.65
2019-03-22T05:19:00.992Z,97.56
2019-03-22T05:20:00.964Z,97.36
2019-03-22T05:21:00.971Z,97.08
2019-03-22T05:22:00.950Z,97.27
2019-03-22T05:23:00.955Z,97.56
2019-03-22T05:24:00.922Z,97.56
2019-03-22T05:25:00.918Z,97.46
2019-03-22T05:26:00.902Z,97.17
2019-03-22T05:27:00.908Z,97.17
2019-03-22T05:28:00.902Z,97.46
2019-03-22T05:29:00.875Z,97.75
2019-03-22T05:30:00.863Z,97.27
2019-03-22T05:31:00.851Z,97.27
2019-03-22T05:32:00.859Z,97.36
2019-03-22T05:33:00.834Z,97.36
2019-03-22T05:34:00.853Z,97.36
2019-03-22T05:35:00.810Z,97.36
2019-03-22T05:36:00.816Z,97.65
2019-03-22T05:37:00.851Z,97.46
2019-03-22T05:38:00.797Z,97.56
2019-03-22T05:39:00.768Z,97.65
2019-03-22T05:40:00.779Z,97.36
2019-03-22T05:41:00.752Z,97.36
2019-03-22T05:42:00.744Z,97.27
2019-03-22T05:43:00.747Z,97.36
2019-03-22T05:44:00.737Z,96.89
2019-03-22T05:45:00.715Z,96.7
2019-03-22T05:46:00.699Z,97.27
2019-03-22T05:47:00.690Z,97.27
2019-03-22T05:48:00.704Z,97.17
2019-03-22T05:49:00.675Z,97.27
2019-03-22T05:50:00.681Z,97.27
2019-03-22T05:51:00.649Z,97.32
2019-03-22T05:52:00.661Z,97.17
2019-03-22T05:53:00.631Z,97.32
2019-03-22T05:54:00.638Z,97.41
2019-03-22T05:55:00.615Z,97.22
2019-03-22T05:56:00.617Z,97.22
2019-03-22T05:57:00.994Z,96.84
2019-03-22T05:58:00.600Z,96.46
2019-03-22T05:59:00.572Z,96.36
2019-03-22T06:00:00.562Z,96.94
2019-03-22T06:01:00.567Z,96.56
2019-03-22T06:02:00.559Z,96.65
2019-03-22T06:03:00.552Z,96.56
2019-03-22T06:04:00.522Z,96.94
2019-03-22T06:05:00.524Z,96.56
2019-03-22T06:06:00.520Z,96.75
2019-03-22T06:07:00.491Z,96.84
2019-03-22T06:08:00.499Z,96.75
2019-03-22T06:09:00.475Z,96.84
2019-03-22T06:10:00.481Z,96.65
2019-03-22T06:11:00.451Z,96.65
2019-03-22T06:12:00.460Z,96.56
2019-03-22T06:13:00.458Z,96.65
2019-03-22T06:14:00.440Z,96.75
2019-03-22T06:15:00.414Z,96.36
2019-03-22T06:16:00.404Z,96.65
2019-03-22T06:17:00.409Z,96.17
2019-03-22T06:18:00.403Z,96.46
2019-03-22T06:19:00.394Z,96.75
2019-03-22T06:20:00.462Z,96.27
2019-03-22T06:21:00.373Z,96.56
2019-03-22T06:22:00.351Z,96.36
2019-03-22T06:23:00.364Z,96.17
2019-03-22T06:24:00.326Z,96.46
2019-03-22T06:25:00.362Z,96.17
2019-03-22T06:26:00.316Z,96.27
2019-03-22T06:27:00.316Z,95.98
2019-03-22T06:28:00.295Z,96.08
2019-03-22T06:29:00.346Z,96.41
2019-03-22T06:30:00.307Z,95.65
2019-03-22T06:31:00.297Z,95.84
2019-03-22T06:32:00.249Z,95.32
2019-03-22T06:33:00.254Z,96.27
2019-03-22T06:34:00.259Z,96.36
2019-03-22T06:35:00.366Z,96.65
2019-03-22T06:36:00.212Z,96.65
2019-03-22T06:37:00.214Z,96.84
2019-03-22T06:38:00.192Z,96.84
2019-03-22T06:39:00.202Z,96.75
2019-03-22T06:40:00.344Z,96.75
2019-03-22T06:41:00.179Z,96.84
2019-03-22T06:42:02.680Z,96.75
2019-03-22T06:43:00.167Z,96.84
2019-03-22T06:44:00.133Z,96.65
2019-03-22T06:45:00.338Z,96.84
2019-03-22T06:46:00.138Z,96.8
2019-03-22T06:47:00.106Z,96.89
2019-03-22T06:48:00.095Z,96.8
2019-03-22T06:49:00.102Z,96.61
2019-03-22T06:50:00.134Z,96.03
2019-03-22T06:51:00.083Z,96.7
2019-03-22T06:52:00.055Z,96.32
2019-03-22T06:53:00.068Z,96.41
2019-03-22T06:54:00.038Z,96.51
2019-03-22T06:55:00.051Z,96.8
2019-03-22T06:56:00.020Z,96.22
2019-03-22T06:57:00.022Z,96.7
2019-03-22T06:58:00.020Z,96.7
2019-03-22T06:58:59.748Z,96.22
2019-03-22T07:00:09.109Z,96.32
2019-03-22T07:00:59.989Z,96.41
2019-03-22T07:01:59.980Z,96.32
2019-03-22T07:02:59.957Z,96.41
2019-03-22T07:03:59.947Z,96.61
2019-03-22T07:04:59.949Z,96.41
2019-03-22T07:05:59.942Z,96.22
2019-03-22T07:06:59.933Z,96.8
2019-03-22T07:07:59.905Z,96.13
2019-03-22T07:08:59.921Z,96.41
2019-03-22T07:09:59.890Z,96.61
2019-03-22T07:10:59.899Z,96.32
2019-03-22T07:11:59.875Z,96.41
2019-03-22T07:12:59.886Z,95.94
2019-03-22T07:13:59.852Z,95.75
2019-03-22T07:14:59.859Z,95.94
2019-03-22T07:15:59.832Z,96.51
2019-03-22T07:17:01.409Z,95.84
2019-03-22T07:17:59.811Z,95.75
2019-03-22T07:18:59.824Z,96.13
2019-03-22T07:19:59.821Z,96.03
2019-03-22T07:20:59.792Z,96.41
2019-03-22T07:21:59.777Z,96.7
2019-03-22T07:22:59.785Z,96.51
2019-03-22T07:23:59.758Z,96.41
2019-03-22T07:24:59.762Z,96.51
2019-03-22T07:25:59.744Z,96.32
2019-03-22T07:26:59.753Z,96.61
2019-03-22T07:27:59.723Z,96.32
2019-03-22T07:28:59.733Z,96.51
2019-03-22T07:29:59.706Z,96.8
2019-03-22T07:30:59.466Z,96.8
2019-03-22T07:31:59.693Z,96.8
2019-03-22T07:32:59.682Z,96.8
2019-03-22T07:33:59.727Z,96.7
2019-03-22T07:34:59.675Z,96.41
2019-03-22T07:35:59.671Z,96.17
2019-03-22T07:36:59.646Z,96.37
2019-03-22T07:37:59.636Z,95.98
2019-03-22T07:38:59.624Z,96.08
2019-03-22T07:39:59.630Z,95.51
2019-03-22T07:40:59.611Z,95.61
2019-03-22T07:41:59.614Z,95.32
2019-03-22T07:42:59.586Z,95.22
2019-03-22T07:43:59.594Z,95.22
2019-03-22T07:44:59.568Z,94.84
2019-03-22T07:45:59.578Z,95.32
2019-03-22T07:46:59.548Z,95.22
2019-03-22T07:47:59.562Z,95.03
2019-03-22T07:48:59.540Z,95.41
2019-03-22T07:49:59.524Z,94.74
2019-03-22T07:50:59.533Z,95.03
2019-03-22T07:51:59.525Z,95.03
2019-03-22T07:52:59.507Z,94.6
2019-03-22T07:53:59.490Z,94.89
2019-03-22T07:54:59.482Z,94.22
2019-03-22T07:55:59.493Z,94.31
2019-03-22T07:56:59.227Z,94.41
2019-03-22T07:57:59.472Z,94.31
2019-03-22T07:58:59.447Z,94.51
2019-03-22T07:59:59.456Z,94.22
2019-03-22T08:00:59.430Z,94.6
2019-03-22T08:01:59.439Z,94.6
2019-03-22T08:02:59.423Z,94.51
2019-03-22T08:03:59.420Z,94.03
2019-03-22T08:04:59.416Z,94.03
2019-03-22T08:05:59.406Z,93.93
2019-03-22T08:07:01.289Z,94.12
2019-03-22T08:07:59.373Z,93.55
2019-03-22T08:08:59.375Z,93.7
2019-03-22T08:09:59.631Z,93.46
2019-03-22T08:10:59.404Z,93.84
2019-03-22T08:11:59.336Z,93.6
2019-03-22T08:12:59.098Z,93.7
2019-03-22T08:13:59.367Z,93.31
2019-03-22T08:14:59.315Z,93.12
2019-03-22T08:16:00.165Z,93.12
2019-03-22T08:16:59.295Z,93.31
2019-03-22T08:17:59.757Z,92.74
2019-03-22T08:18:59.280Z,93.12
2019-03-22T08:19:59.857Z,93.12
2019-03-22T08:20:59.292Z,93.02
2019-03-22T08:21:59.291Z,92.74
2019-03-22T08:22:59.287Z,92.64
2019-03-22T08:23:59.253Z,92.36
2019-03-22T08:24:59.298Z,92.36
2019-03-22T08:25:59.276Z,92.64
2019-03-22T08:26:59.215Z,92.16
2019-03-22T08:27:59.225Z,92.83
2019-03-22T08:28:59.206Z,92.83
2019-03-22T08:29:59.223Z,93.41
2019-03-22T08:30:59.188Z,92.83
2019-03-22T08:31:59.197Z,92.74
2019-03-22T08:32:58.980Z,92.74
2019-03-22T08:33:59.181Z,92.55
2019-03-22T08:34:59.166Z,92.55
2019-03-22T08:35:58.963Z,92.64
2019-03-22T08:36:59.172Z,92.74
2019-03-22T08:37:59.154Z,92.64
2019-03-22T08:38:59.178Z,92.26
2019-03-22T08:39:59.183Z,92.83
2019-03-22T08:40:59.164Z,92.36
2019-03-22T08:41:59.101Z,92.55
2019-03-22T08:42:59.090Z,92.74
2019-03-22T08:43:59.171Z,92.74
2019-03-22T08:44:59.079Z,92.93
2019-03-22T08:45:59.102Z,92.64
2019-03-22T08:46:59.063Z,92.26
2019-03-22T08:47:59.135Z,92.74
2019-03-22T08:48:59.164Z,92.64
2019-03-22T08:49:59.066Z,92.74
2019-03-22T08:50:59.076Z,92.55
2019-03-22T08:51:59.085Z,92.36
2019-03-22T08:52:59.051Z,92.74
2019-03-22T08:53:59.021Z,92.36
2019-03-22T08:54:58.995Z,92.36
2019-03-22T08:55:59.054Z,92.45
2019-03-22T08:56:58.994Z,92.93
2019-03-22T08:57:59.035Z,92.74
2019-03-22T08:58:59.019Z,92.64
2019-03-22T08:59:58.984Z,92.74
2019-03-22T09:01:00.522Z,92.64
2019-03-22T09:01:59.036Z,92.74
2019-03-22T09:02:58.952Z,92.36
2019-03-22T09:03:58.937Z,92.64
2019-03-22T09:04:58.972Z,92.55
2019-03-22T09:05:58.953Z,91.97
2019-03-22T09:07:01.449Z,92.64
2019-03-22T09:07:59.024Z,91.97
2019-03-22T09:08:58.903Z,92.83
2019-03-22T09:09:58.904Z,92.55
2019-03-22T09:10:58.924Z,92.64
2019-03-22T09:11:58.906Z,92.55
2019-03-22T09:12:58.949Z,92.36
2019-03-22T09:13:58.940Z,92.55
2019-03-22T09:14:58.883Z,92.83
2019-03-22T09:15:58.831Z,92.55
2019-03-22T09:16:58.888Z,92.74
2019-03-22T09:17:58.831Z,92.55
2019-03-22T09:18:58.838Z,91.97
2019-03-22T09:19:58.813Z,92.74
2019-03-22T09:20:58.811Z,92.55
2019-03-22T09:22:01.598Z,92.55
2019-03-22T09:22:58.858Z,92.45
2019-03-22T09:23:58.795Z,92.36
2019-03-22T09:24:58.765Z,92.74
2019-03-22T09:25:58.830Z,91.97
2019-03-22T09:26:58.760Z,92.11
2019-03-22T09:27:58.805Z,92.55
2019-03-22T09:28:58.767Z,91.97
2019-03-22T09:29:58.753Z,91.97
2019-03-22T09:31:12.469Z,92.02
2019-03-22T09:31:58.785Z,92.02
2019-03-22T09:32:58.743Z,92.3
2019-03-22T09:33:58.706Z,91.64
2019-03-22T09:34:59.843Z,91.93
2019-03-22T09:35:58.798Z,91.45
2019-03-22T09:36:58.792Z,91.25
2019-03-22T09:37:58.657Z,91.45
2019-03-22T09:38:58.701Z,91.35
2019-03-22T09:39:58.430Z,90.88
2019-03-22T09:40:58.438Z,90.97
2019-03-22T09:41:58.629Z,90.88
2019-03-22T09:42:58.640Z,90.88
2019-03-22T09:43:58.633Z,91.35
2019-03-22T09:44:58.621Z,91.83
2019-03-22T09:45:58.607Z,91.54
2019-03-22T09:46:58.629Z,91.45
2019-03-22T09:47:58.609Z,91.45
2019-03-22T09:48:58.680Z,91.54
2019-03-22T09:49:58.627Z,90.97
2019-03-22T09:50:58.577Z,90.78
2019-03-22T09:51:58.598Z,90.68
2019-03-22T09:52:58.582Z,90.97
2019-03-22T09:53:58.562Z,90.88
2019-03-22T09:55:12.025Z,90.78
2019-03-22T09:55:58.549Z,90.78
2019-03-22T09:56:58.586Z,90.78
2019-03-22T09:57:58.530Z,91.11
2019-03-22T09:58:58.533Z,90.34
2019-03-22T09:59:58.527Z,90.63
2019-03-22T10:00:58.659Z,90.78
2019-03-22T10:01:58.540Z,90.59
2019-03-22T10:02:58.502Z,90.63
2019-03-22T10:03:58.517Z,90.82
2019-03-22T10:04:58.518Z,90.82
2019-03-22T10:05:58.648Z,90.92
2019-03-22T10:06:58.479Z,90.82
2019-03-22T10:07:58.640Z,91.02
2019-03-22T10:08:58.468Z,90.82
2019-03-22T10:09:58.444Z,90.44
2019-03-22T10:10:58.449Z,90.25
2019-03-22T10:11:58.425Z,89.96
2019-03-22T10:12:58.428Z,90.25
2019-03-22T10:13:58.459Z,89.2
2019-03-22T10:14:58.398Z,89.29
2019-03-22T10:15:58.380Z,90.16
2019-03-22T10:16:58.446Z,90.25
2019-03-22T10:17:58.397Z,90.06
2019-03-22T10:18:58.387Z,90.25
2019-03-22T10:19:58.391Z,89.29
2019-03-22T10:20:58.386Z,90.16
2019-03-22T10:21:58.528Z,90.25
2019-03-22T10:22:58.331Z,90.25
2019-03-22T10:23:58.352Z,89.87
2019-03-22T10:24:58.405Z,90.25
2019-03-22T10:25:58.326Z,90.06
2019-03-22T10:26:58.359Z,90.16
2019-03-22T10:27:58.312Z,90.16
2019-03-22T10:28:58.304Z,90.34
2019-03-22T10:29:58.299Z,89.39
2019-03-22T10:30:58.275Z,89.1
2019-03-22T10:31:58.349Z,89.58
2019-03-22T10:32:58.324Z,89.39
2019-03-22T10:33:58.334Z,89.67
2019-03-22T10:34:58.088Z,90.06
2019-03-22T10:35:58.293Z,89.87
2019-03-22T10:36:58.247Z,89.77
2019-03-22T10:38:04.709Z,90.34
2019-03-22T10:38:58.284Z,90.34
2019-03-22T10:39:58.226Z,90.34
2019-03-22T10:40:58.284Z,91.02
2019-03-22T10:41:58.198Z,90.82
2019-03-22T10:42:58.245Z,91.02
2019-03-22T10:43:58.183Z,90.63
2019-03-22T10:44:58.198Z,90.34
2019-03-22T10:45:58.167Z,90.34
2019-03-22T10:46:58.227Z,90.53
2019-03-22T10:47:58.155Z,90.34
2019-03-22T10:48:58.234Z,90.34
2019-03-22T10:49:58.161Z,90.25
2019-03-22T10:50:58.215Z,89.96
2019-03-22T10:52:00.398Z,89.77
2019-03-22T10:52:58.217Z,90.16
2019-03-22T10:53:58.144Z,89.96
2019-03-22T10:54:58.158Z,89.29
2019-03-22T10:55:58.202Z,89.96
2019-03-22T10:56:58.108Z,90.25
2019-03-22T10:57:58.110Z,89.87
2019-03-22T10:58:58.096Z,89.48
2019-03-22T10:59:58.076Z,89.87
2019-03-22T11:00:58.082Z,89.87
2019-03-22T11:02:07.741Z,89.1
2019-03-22T11:02:58.071Z,89.1
2019-03-22T11:03:58.296Z,89.15
2019-03-22T11:04:58.040Z,89.2
2019-03-22T11:05:58.029Z,89.15
2019-03-22T11:06:58.020Z,89.34
2019-03-22T11:07:58.034Z,88.48
2019-03-22T11:08:58.022Z,89.15
2019-03-22T11:09:58.019Z,88.72
2019-03-22T11:10:57.998Z,89.1
2019-03-22T11:11:58.317Z,89.53
2019-03-22T11:12:57.986Z,89.39
2019-03-22T11:13:57.974Z,89.62
2019-03-22T11:14:57.988Z,89.62
2019-03-22T11:15:58.149Z,89.24
2019-03-22T11:16:57.963Z,88.86
2019-03-22T11:17:57.947Z,88.76
2019-03-22T11:18:57.959Z,88.19
2019-03-22T11:19:59.923Z,88.19
2019-03-22T11:21:07.591Z,88
2019-03-22T11:21:57.921Z,87.85
2019-03-22T11:22:57.919Z,87.85
2019-03-22T11:23:57.930Z,87.18
2019-03-22T11:24:57.908Z,86.99
2019-03-22T11:26:06.444Z,87.04
2019-03-22T11:26:57.890Z,87.43
2019-03-22T11:27:57.907Z,87.71
2019-03-22T11:28:57.876Z,88.09
2019-03-22T11:29:57.895Z,88.29
2019-03-22T11:31:07.036Z,88.38
2019-03-22T11:31:57.877Z,88
2019-03-22T11:32:57.866Z,87.81
2019-03-22T11:33:57.862Z,87.9
2019-03-22T11:34:57.838Z,88.09
2019-03-22T11:35:57.831Z,87.9
2019-03-22T11:36:57.864Z,88
2019-03-22T11:37:57.837Z,88
2019-03-22T11:38:57.574Z,87.47
2019-03-22T11:39:57.823Z,87.37
2019-03-22T11:40:57.807Z,87.18
2019-03-22T11:41:57.816Z,86.99
2019-03-22T11:43:07.958Z,87.08
2019-03-22T11:43:57.809Z,87.56
2019-03-22T11:44:57.775Z,87.08
2019-03-22T11:45:57.790Z,87.27
2019-03-22T11:46:57.765Z,86.9
2019-03-22T11:47:57.786Z,86.99
2019-03-22T11:48:57.766Z,87.03
2019-03-22T11:49:57.762Z,86.46
2019-03-22T11:50:57.737Z,86.27
2019-03-22T11:51:57.750Z,86.17
2019-03-22T11:52:57.735Z,86.08
2019-03-22T11:53:57.718Z,85.6
2019-03-22T11:54:57.712Z,85.69
2019-03-22T11:55:57.727Z,85.41
2019-03-22T11:56:57.706Z,85.6
2019-03-22T11:57:57.714Z,85.69
2019-03-22T11:58:57.691Z,85.41
2019-03-22T11:59:57.715Z,85.69
2019-03-22T12:00:57.684Z,85.69
2019-03-22T12:01:57.701Z,85.79
2019-03-22T12:02:57.672Z,85.69
2019-03-22T12:03:57.679Z,85.79
2019-03-22T12:04:57.668Z,85.5
2019-03-22T12:05:57.655Z,86.17
2019-03-22T12:06:57.669Z,86.17
2019-03-22T12:07:57.659Z,86.08
2019-03-22T12:08:57.637Z,85.41
2019-03-22T12:09:57.627Z,85.88
2019-03-22T12:10:57.629Z,85.41
2019-03-22T12:11:57.636Z,85.6
2019-03-22T12:12:57.626Z,85.41
2019-03-22T12:13:57.628Z,85.6
2019-03-22T12:14:57.599Z,85.6
2019-03-22T12:15:57.610Z,85.74
2019-03-22T12:16:59.156Z,85.54
2019-03-22T12:17:57.600Z,85.79
2019-03-22T12:18:57.576Z,85.54
2019-03-22T12:19:57.589Z,85.45
2019-03-22T12:20:59.061Z,85.54
2019-03-22T12:21:57.577Z,85.35
2019-03-22T12:22:57.555Z,85.25
2019-03-22T12:23:57.547Z,84.97
2019-03-22T12:24:57.557Z,84.88
2019-03-22T12:25:57.556Z,84.58
2019-03-22T12:26:57.547Z,84.11
2019-03-22T12:27:57.533Z,84.11
2019-03-22T12:28:57.534Z,84.01
2019-03-22T12:29:57.533Z,83.72
2019-03-22T12:30:57.509Z,83.19
2019-03-22T12:31:57.519Z,83.58
2019-03-22T12:32:57.497Z,83.48
2019-03-22T12:33:57.510Z,83.29
2019-03-22T12:34:57.494Z,82.81
2019-03-22T12:35:57.509Z,83.09
2019-03-22T12:36:57.498Z,82.42
2019-03-22T12:37:57.791Z,82.42
2019-03-22T12:38:57.466Z,82.08
2019-03-22T12:39:57.219Z,81.79
2019-03-22T12:40:57.479Z,81.6
2019-03-22T12:41:57.470Z,81.89
2019-03-22T12:42:59.052Z,80.93
2019-03-22T12:43:57.452Z,80.83
2019-03-22T12:44:57.451Z,81.22
2019-03-22T12:45:57.433Z,81.31
2019-03-22T12:46:57.445Z,81.18
2019-03-22T12:47:57.424Z,81.85
2019-03-22T12:48:57.433Z,82.04
2019-03-22T12:49:57.411Z,81.95
2019-03-22T12:50:57.428Z,82.9
2019-03-22T12:51:57.401Z,83
2019-03-22T12:52:57.405Z,82.81
2019-03-22T12:53:57.397Z,82.81
2019-03-22T12:54:57.410Z,82.71